Aviation Digital Data Service (ADDS)

Output produced by METARs form (2030 UTC 27 February 2017)
found at http://aviationweather.gov/adds/metars/
 
KBVI 272009Z 2720/2818 20007KT P6SM OVC040 
     FM272100 21008KT P6SM -RA OVC015 
     FM280300 VRB05KT P6SM OVC060 
     FM281000 13005KT P6SM SCT060 
     FM281600 19009KT P6SM -SHRA OVC025